Time;durP1;ratioP1;P1;durP2;ratioP2;P2;SDS_P1;SDS_P2;PMS_P1;PMS_P2;Temp;Humidity;BMP_temperature;BMP_pressure;BME280_temperature;BME280_humidity;BME280_pressure;Samples;Min_cycle;Max_cycle;Signal;HPM_P1;HPM_P2
2022/07/08 00:01:15;;;;;;;8.55;4.43;;;;;;;-141.48;100.00;69781.59;4971518;29;20113;-63
2022/07/08 00:03:45;;;;;;;5.93;4.57;;;;;;;-141.48;100.00;69781.59;4971539;29;20030;-60
2022/07/08 00:06:16;;;;;;;8.20;5.05;;;;;;;-141.48;100.00;69781.59;4971753;29;20034;-63
2022/07/08 00:08:46;;;;;;;5.82;5.25;;;;;;;-141.48;100.00;69781.59;4971707;29;20023;-61
2022/07/08 00:11:17;;;;;;;6.38;5.68;;;;;;;-141.48;100.00;69781.59;4971623;29;20046;-63
2022/07/08 00:13:47;;;;;;;7.40;6.13;;;;;;;-141.48;100.00;69781.59;4971166;29;20112;-63
2022/07/08 00:16:17;;;;;;;6.20;5.70;;;;;;;-141.48;100.00;69781.59;4971371;29;20408;-63
2022/07/08 00:18:48;;;;;;;5.60;5.10;;;;;;;-141.48;100.00;69781.59;4971430;29;20038;-62
2022/07/08 00:21:18;;;;;;;12.05;4.93;;;;;;;-141.48;100.00;69781.59;4971745;29;20038;-61
2022/07/08 00:23:49;;;;;;;7.72;5.00;;;;;;;-141.48;100.00;69781.59;4971194;29;20027;-63
2022/07/08 00:26:19;;;;;;;7.45;5.03;;;;;;;-141.48;100.00;69781.59;4954731;29;20425;-62
2022/07/08 00:28:49;;;;;;;7.75;4.55;;;;;;;-141.48;100.00;69781.59;4971415;29;20092;-63
2022/07/08 00:31:20;;;;;;;5.32;5.03;;;;;;;-141.48;100.00;69781.59;4971341;29;20030;-63
2022/07/08 00:33:50;;;;;;;4.68;4.47;;;;;;;-141.48;100.00;69781.59;4970949;29;20026;-63
2022/07/08 00:36:21;;;;;;;4.28;4.07;;;;;;;-141.48;100.00;69781.59;4954814;29;20048;-63
2022/07/08 00:38:51;;;;;;;5.90;4.97;;;;;;;-141.48;100.00;69781.59;4971295;29;20098;-62
2022/07/08 00:41:22;;;;;;;9.70;4.88;;;;;;;-141.48;100.00;69781.59;4970890;29;20385;-62
2022/07/08 00:43:53;;;;;;;6.15;5.57;;;;;;;-141.48;100.00;69781.59;4970937;29;20396;-64
2022/07/08 00:46:24;;;;;;;4.82;4.47;;;;;;;-141.48;100.00;69781.59;4954711;29;20529;-61
2022/07/08 00:48:54;;;;;;;6.07;5.43;;;;;;;-141.48;100.00;69781.59;4954555;29;20111;-63
2022/07/08 00:51:26;;;;;;;5.70;5.25;;;;;;;-141.48;100.00;69781.59;4971046;29;20034;-63
2022/07/08 00:53:57;;;;;;;6.15;5.57;;;;;;;-141.48;100.00;69781.59;4970511;29;20035;-63
2022/07/08 00:56:27;;;;;;;9.43;6.57;;;;;;;-141.48;100.00;69781.59;4970405;29;20030;-63
2022/07/08 00:58:58;;;;;;;6.03;3.92;;;;;;;-141.48;100.00;69781.59;4970252;29;20038;-62
2022/07/08 01:01:29;;;;;;;7.00;5.40;;;;;;;-141.48;100.00;69781.59;4970406;29;20110;-64
2022/07/08 01:03:59;;;;;;;8.40;6.30;;;;;;;-141.48;100.00;69781.59;4970112;29;20113;-61
2022/07/08 01:06:30;;;;;;;4.63;4.43;;;;;;;-141.48;100.00;69781.59;4970183;29;20034;-64
2022/07/08 01:09:01;;;;;;;7.20;6.47;;;;;;;-141.48;100.00;69781.59;4954562;29;20041;-62
2022/07/08 01:11:32;;;;;;;15.98;7.18;;;;;;;-141.48;100.00;69781.59;4971010;29;20477;-61
2022/07/08 01:14:04;;;;;;;5.38;5.03;;;;;;;-141.48;100.00;69781.59;4970346;29;20111;-63
2022/07/08 01:16:36;;;;;;;4.47;4.05;;;;;;;-141.48;100.00;69781.59;4970408;29;20026;-64
2022/07/08 01:19:06;;;;;;;4.35;4.05;;;;;;;-141.48;100.00;69781.59;4954272;29;20496;-64
2022/07/08 01:21:37;;;;;;;6.57;5.13;;;;;;;-141.48;100.00;69781.59;4970430;29;20025;-62
2022/07/08 01:24:07;;;;;;;4.82;4.18;;;;;;;-141.48;100.00;69781.59;4970134;29;20042;-63
2022/07/08 01:26:38;;;;;;;6.15;4.43;;;;;;;-141.48;100.00;69781.59;4970437;29;20404;-62
2022/07/08 01:29:08;;;;;;;8.30;5.50;;;;;;;-141.48;100.00;69781.59;4970238;29;20035;-61
2022/07/08 01:31:40;;;;;;;8.02;6.80;;;;;;;-141.48;100.00;69781.59;4953604;29;20504;-64
2022/07/08 01:34:11;;;;;;;11.95;6.18;;;;;;;-141.48;100.00;69781.59;4969886;29;20405;-66
2022/07/08 01:36:41;;;;;;;4.30;3.95;;;;;;;-141.48;100.00;69781.59;4970229;29;20044;-64
2022/07/08 01:39:12;;;;;;;8.25;6.00;;;;;;;-141.48;100.00;69781.59;4970546;29;20035;-64
2022/07/08 01:41:42;;;;;;;8.32;5.97;;;;;;;-141.48;100.00;69781.59;4970031;29;20053;-64
2022/07/08 01:44:13;;;;;;;8.70;6.45;;;;;;;-141.48;100.00;69781.59;4969853;29;20714;-63
2022/07/08 01:46:43;;;;;;;5.80;4.93;;;;;;;-141.48;100.00;69781.59;4970147;29;20027;-62
2022/07/08 01:49:14;;;;;;;7.13;5.40;;;;;;;-141.48;100.00;69781.59;4970482;29;20037;-61
2022/07/08 01:51:44;;;;;;;6.00;5.50;;;;;;;-141.48;100.00;69781.59;4970220;29;20549;-64
2022/07/08 01:54:15;;;;;;;6.50;5.93;;;;;;;-141.48;100.00;69781.59;4969804;29;20039;-64
2022/07/08 01:56:45;;;;;;;8.63;6.55;;;;;;;-141.48;100.00;69781.59;4970001;29;20027;-63
2022/07/08 01:59:16;;;;;;;7.32;5.60;;;;;;;-141.48;100.00;69781.59;4970513;29;20026;-62
2022/07/08 02:01:46;;;;;;;7.15;6.43;;;;;;;-141.48;100.00;69781.59;4970007;29;20092;-61
2022/07/08 02:04:16;;;;;;;11.20;6.60;;;;;;;-141.48;100.00;69781.59;4969864;29;20027;-62
2022/07/08 02:06:47;;;;;;;15.90;6.07;;;;;;;-141.48;100.00;69781.59;4969927;29;20499;-67
2022/07/08 02:09:17;;;;;;;7.25;5.35;;;;;;;-141.48;100.00;69781.59;4969909;29;20035;-65
2022/07/08 02:14:37;;;;;;;5.55;5.15;;;;;;;-141.48;100.00;69781.59;4969842;29;20041;-62
2022/07/08 02:17:08;;;;;;;10.52;5.85;;;;;;;-141.48;100.00;69781.59;4972853;29;20027;-67
2022/07/08 02:19:39;;;;;;;6.25;5.70;;;;;;;-141.48;100.00;69781.59;4957185;29;20083;-62
2022/07/08 02:22:10;;;;;;;6.90;6.18;;;;;;;-141.48;100.00;69781.59;4973821;29;20381;-62
2022/07/08 02:24:40;;;;;;;11.23;6.95;;;;;;;-141.48;100.00;69781.59;4973295;29;20038;-64
2022/07/08 02:27:11;;;;;;;13.60;6.25;;;;;;;-141.48;100.00;69781.59;4973505;29;20058;-64
2022/07/08 02:29:41;;;;;;;6.15;5.75;;;;;;;-141.48;100.00;69781.59;4973532;29;20054;-64
2022/07/08 02:32:12;;;;;;;6.65;6.05;;;;;;;-141.48;100.00;69781.59;4973229;29;20385;-61
2022/07/08 02:34:43;;;;;;;6.00;5.38;;;;;;;-141.48;100.00;69781.59;4972875;29;20407;-65
2022/07/08 02:37:13;;;;;;;9.65;5.43;;;;;;;-141.48;100.00;69781.59;4973097;29;20030;-62
2022/07/08 02:39:44;;;;;;;9.45;5.78;;;;;;;-141.48;100.00;69781.59;4973345;29;20046;-64
2022/07/08 02:42:15;;;;;;;6.05;5.47;;;;;;;-141.48;100.00;69781.59;4973010;29;20059;-64
2022/07/08 02:44:45;;;;;;;11.85;6.90;;;;;;;-141.48;100.00;69781.59;4972653;29;20038;-64
2022/07/08 02:47:16;;;;;;;6.50;6.00;;;;;;;-141.48;100.00;69781.59;4973193;29;20023;-64
2022/07/08 02:49:46;;;;;;;6.28;5.80;;;;;;;-141.48;100.00;69781.59;4973251;29;20026;-62
2022/07/08 02:52:17;;;;;;;12.32;6.78;;;;;;;-141.48;100.00;69781.59;4956671;29;20034;-64
2022/07/08 02:54:47;;;;;;;5.63;5.25;;;;;;;-141.48;100.00;69781.59;4956356;29;20080;-64
2022/07/08 02:57:18;;;;;;;8.40;6.50;;;;;;;-141.48;100.00;69781.59;4973040;29;20051;-66
2022/07/08 02:59:48;;;;;;;6.25;5.75;;;;;;;-141.48;100.00;69781.59;4972857;29;20400;-64
2022/07/08 03:02:18;;;;;;;6.63;6.10;;;;;;;-141.48;100.00;69781.59;4972665;29;20027;-64
2022/07/08 03:04:49;;;;;;;9.13;6.47;;;;;;;-141.48;100.00;69781.59;4972620;29;20056;-63
2022/07/08 03:07:20;;;;;;;7.00;6.50;;;;;;;-141.48;100.00;69781.59;4972627;29;20049;-64
2022/07/08 03:09:51;;;;;;;7.07;6.45;;;;;;;-141.48;100.00;69781.59;4972772;29;20038;-64
2022/07/08 03:12:21;;;;;;;8.30;7.40;;;;;;;-141.48;100.00;69781.59;4972787;29;20503;-63
2022/07/08 03:14:52;;;;;;;5.50;5.10;;;;;;;-141.48;100.00;69781.59;4972333;29;20039;-62
2022/07/08 03:17:22;;;;;;;9.63;5.25;;;;;;;-141.48;100.00;69781.59;4941465;29;20030;-63
2022/07/08 03:19:52;;;;;;;5.30;5.07;;;;;;;-141.48;100.00;69781.59;4956350;29;20035;-61
2022/07/08 03:22:23;;;;;;;7.05;6.32;;;;;;;-141.48;100.00;69781.59;4972398;29;20070;-63
2022/07/08 03:24:53;;;;;;;5.32;4.93;;;;;;;-141.48;100.00;69781.59;4972234;29;20141;-64
2022/07/08 03:27:24;;;;;;;6.93;6.35;;;;;;;-141.48;100.00;69781.59;4971195;29;20026;-63
2022/07/08 03:29:54;;;;;;;7.68;7.05;;;;;;;-141.48;100.00;69781.59;4957269;29;20126;-63
2022/07/08 03:32:26;;;;;;;10.75;6.32;;;;;;;-141.48;100.00;69781.59;4972037;29;20058;-62
2022/07/08 03:34:56;;;;;;;10.45;6.38;;;;;;;-141.48;100.00;69781.59;4971986;29;20034;-64
2022/07/08 03:37:26;;;;;;;7.50;6.78;;;;;;;-141.48;100.00;69781.59;4972208;29;20037;-62
2022/07/08 03:41:19;;;;;;;6.57;6.00;;;;;;;-141.48;100.00;69781.59;4972004;29;20035;-63
2022/07/08 03:42:47;;;;;;;8.48;7.00;;;;;;;-141.48;100.00;69781.59;4972165;29;20485;-62
2022/07/08 03:45:18;;;;;;;9.27;7.28;;;;;;;-141.48;100.00;69781.59;4971692;29;20031;-61
2022/07/08 03:47:49;;;;;;;8.57;5.78;;;;;;;-141.48;100.00;69781.59;4972326;29;20029;-61
2022/07/08 03:50:19;;;;;;;7.00;5.57;;;;;;;-141.48;100.00;69781.59;4971807;29;20481;-63
2022/07/08 03:52:49;;;;;;;6.60;5.97;;;;;;;-141.48;100.00;69781.59;4971922;29;20524;-63
2022/07/08 03:55:24;;;;;;;7.15;6.50;;;;;;;-141.48;100.00;69781.59;4971655;29;20054;-62
2022/07/08 03:57:56;;;;;;;7.13;6.47;;;;;;;-141.48;100.00;69781.59;4955543;29;20031;-62
2022/07/08 04:00:26;;;;;;;9.98;6.72;;;;;;;-141.48;100.00;69781.59;4971800;29;20030;-61
2022/07/08 04:02:57;;;;;;;7.30;5.68;;;;;;;-141.48;100.00;69781.59;4971947;29;20056;-62
2022/07/08 04:05:28;;;;;;;7.38;6.97;;;;;;;-141.48;100.00;69781.59;4971470;29;20035;-60
2022/07/08 04:07:58;;;;;;;6.80;6.30;;;;;;;-141.48;100.00;69781.59;4971544;29;20454;-62
2022/07/08 04:10:29;;;;;;;7.40;6.90;;;;;;;-141.48;100.00;69781.59;4971526;29;20022;-60
2022/07/08 04:12:59;;;;;;;9.40;8.50;;;;;;;-141.48;100.00;69781.59;4971431;29;20027;-62
2022/07/08 04:15:30;;;;;;;6.70;6.28;;;;;;;-141.48;100.00;69781.59;4971269;29;20056;-61
2022/07/08 04:18:01;;;;;;;10.15;6.50;;;;;;;-141.48;100.00;69781.59;4971504;29;20035;-63
2022/07/08 04:20:31;;;;;;;7.03;6.38;;;;;;;-141.48;100.00;69781.59;4971420;29;20095;-63
2022/07/08 04:23:02;;;;;;;7.00;6.38;;;;;;;-141.48;100.00;69781.59;4954937;29;20084;-62
2022/07/08 04:25:32;;;;;;;6.53;6.07;;;;;;;-141.48;100.00;69781.59;4970984;29;20472;-63
2022/07/08 04:28:03;;;;;;;7.45;6.72;;;;;;;-141.48;100.00;69781.59;4971346;29;20027;-61
2022/07/08 04:30:33;;;;;;;6.10;5.22;;;;;;;-141.48;100.00;69781.59;4985677;24;21405;-67
2022/07/08 04:33:05;;;;;;;6.03;5.60;;;;;;;-141.48;100.00;69781.59;4990076;29;20061;-66
2022/07/08 04:35:36;;;;;;;7.13;6.47;;;;;;;-141.48;100.00;69781.59;4987825;29;20035;-66
2022/07/08 04:38:07;;;;;;;8.25;7.55;;;;;;;-141.48;100.00;69781.59;4970892;29;20069;-65
2022/07/08 04:40:38;;;;;;;10.38;9.57;;;;;;;-141.48;100.00;69781.59;4971010;29;20540;-66
2022/07/08 04:43:09;;;;;;;8.40;7.50;;;;;;;-141.48;100.00;69781.59;4971136;29;20033;-66
2022/07/08 04:45:41;;;;;;;18.20;8.43;;;;;;;-141.48;100.00;69781.59;4970775;29;20030;-66
2022/07/08 04:48:27;;;;;;;10.10;8.68;;;;;;;-141.48;100.00;69781.59;4970985;29;20039;-65
2022/07/08 04:51:16;;;;;;;7.57;6.93;;;;;;;-141.48;100.00;69781.59;4970889;29;20112;-66
2022/07/08 04:53:58;;;;;;;10.17;6.27;;;;;;;-141.48;100.00;69781.59;4970179;29;20070;-65
2022/07/08 04:56:41;;;;;;;8.85;7.57;;;;;;;-141.48;100.00;69781.59;4970503;29;20430;-66
2022/07/08 04:59:16;;;;;;;9.10;8.23;;;;;;;-141.48;100.00;69781.59;4970764;29;20107;-65
2022/07/08 05:01:48;;;;;;;6.90;6.38;;;;;;;-141.48;100.00;69781.59;4970901;29;20115;-66
2022/07/08 05:04:23;;;;;;;8.07;7.30;;;;;;;-141.48;100.00;69781.59;4970835;29;20388;-67
2022/07/08 05:07:00;;;;;;;7.25;5.95;;;;;;;-141.48;100.00;69781.59;4970580;29;20038;-66
2022/07/08 05:09:38;;;;;;;16.83;7.97;;;;;;;-141.48;100.00;69781.59;4970692;29;20034;-66
2022/07/08 05:12:12;;;;;;;6.25;5.78;;;;;;;-141.48;100.00;69781.59;4970618;29;20037;-67
2022/07/08 05:14:43;;;;;;;7.70;6.20;;;;;;;-141.48;100.00;69781.59;4970269;29;20038;-66
2022/07/08 05:17:14;;;;;;;7.60;5.05;;;;;;;-141.48;100.00;69781.59;4970721;29;20035;-66
2022/07/08 05:19:45;;;;;;;8.10;7.13;;;;;;;-141.48;100.00;69781.59;4970768;29;20031;-67
2022/07/08 05:22:16;;;;;;;7.15;6.00;;;;;;;-141.48;100.00;69781.59;4954021;29;20484;-67
2022/07/08 05:24:48;;;;;;;9.23;6.18;;;;;;;-141.48;100.00;69781.59;4970331;29;20034;-67
2022/07/08 05:27:20;;;;;;;6.35;5.88;;;;;;;-141.48;100.00;69781.59;4970717;29;20090;-66
2022/07/08 05:29:51;;;;;;;6.32;5.55;;;;;;;-141.48;100.00;69781.59;4970281;29;20031;-67
2022/07/08 05:32:22;;;;;;;7.18;5.65;;;;;;;-141.48;100.00;69781.59;4939273;29;20045;-66
2022/07/08 05:34:53;;;;;;;5.57;5.25;;;;;;;-141.48;100.00;69781.59;4969771;29;20131;-67
2022/07/08 05:37:24;;;;;;;10.30;7.38;;;;;;;-141.48;100.00;69781.59;4970423;29;20484;-67
2022/07/08 05:39:55;;;;;;;6.50;5.95;;;;;;;-141.48;100.00;69781.59;4970490;29;20034;-67
2022/07/08 05:42:25;;;;;;;6.53;4.82;;;;;;;-141.48;100.00;69781.59;4953966;29;20114;-67
2022/07/08 05:44:55;;;;;;;8.75;6.30;;;;;;;-141.48;100.00;69781.59;4969907;29;20034;-67
2022/07/08 05:47:26;;;;;;;5.00;4.60;;;;;;;-141.48;100.00;69781.59;4970222;29;20062;-66
2022/07/08 05:49:57;;;;;;;17.50;5.65;;;;;;;-141.48;100.00;69781.59;4970332;29;20023;-66
2022/07/08 05:52:27;;;;;;;5.05;4.30;;;;;;;-141.48;100.00;69781.59;4973699;29;20027;-67
2022/07/08 05:54:58;;;;;;;12.93;4.63;;;;;;;-141.48;100.00;69781.59;4973674;29;20087;-67
2022/07/08 05:57:28;;;;;;;5.60;4.90;;;;;;;-141.48;100.00;69781.59;4973796;29;20095;-66
2022/07/08 05:59:59;;;;;;;6.07;5.57;;;;;;;-141.48;100.00;69781.59;4974107;29;20062;-67
2022/07/08 06:02:29;;;;;;;5.65;5.05;;;;;;;-141.48;100.00;69781.59;4973942;29;20062;-66
2022/07/08 06:05:00;;;;;;;6.00;5.65;;;;;;;-141.48;100.00;69781.59;4973626;29;20042;-66
2022/07/08 06:07:32;;;;;;;6.18;5.30;;;;;;;-141.48;100.00;69781.59;4974064;29;20026;-66
2022/07/08 06:10:02;;;;;;;6.15;4.68;;;;;;;-141.48;100.00;69781.59;4974134;29;20414;-66
2022/07/08 06:12:46;;;;;;;9.68;5.18;;;;;;;-141.48;100.00;69781.59;4957696;29;20031;-66
2022/07/08 06:15:21;;;;;;;7.40;5.20;;;;;;;-141.48;100.00;69781.59;4973695;29;20492;-66
2022/07/08 06:17:54;;;;;;;6.22;5.78;;;;;;;-141.48;100.00;69781.59;4974147;29;20079;-66
2022/07/08 06:21:16;;;;;;;5.22;4.93;;;;;;;-141.48;100.00;69781.59;4973516;29;20030;-65
2022/07/08 06:23:57;;;;;;;4.82;3.97;;;;;;;-141.48;100.00;69781.59;4973273;29;20046;-65
2022/07/08 06:26:33;;;;;;;6.60;6.03;;;;;;;-141.48;100.00;69781.59;4973470;29;20038;-65
2022/07/08 06:29:07;;;;;;;6.78;6.15;;;;;;;-141.48;100.00;69781.59;4973373;29;20030;-66
2022/07/08 06:31:41;;;;;;;5.13;4.55;;;;;;;-141.48;100.00;69781.59;4973311;29;20048;-65
2022/07/08 06:34:17;;;;;;;5.30;4.78;;;;;;;-141.48;100.00;69781.59;4956886;29;20445;-64
2022/07/08 06:36:49;;;;;;;4.68;4.25;;;;;;;-141.48;100.00;69781.59;4957312;29;20034;-63
2022/07/08 06:39:19;;;;;;;3.30;3.10;;;;;;;-141.48;100.00;69781.59;4973734;29;20053;-62
2022/07/08 06:42:01;;;;;;;5.55;4.38;;;;;;;-141.48;100.00;69781.59;4973260;29;20035;-62
2022/07/08 06:44:31;;;;;;;5.00;4.65;;;;;;;-141.48;100.00;69781.59;4957784;29;20518;-62
2022/07/08 06:47:02;;;;;;;5.82;4.53;;;;;;;-141.48;100.00;69781.59;4973793;29;20027;-61
2022/07/08 06:49:33;;;;;;;10.32;5.28;;;;;;;-141.48;100.00;69781.59;4957528;29;20452;-64
2022/07/08 06:52:04;;;;;;;5.40;4.93;;;;;;;-141.48;100.00;69781.59;4957633;29;20396;-62
2022/07/08 06:54:35;;;;;;;6.63;3.20;;;;;;;-141.48;100.00;69781.59;4956432;29;20440;-65
2022/07/08 06:57:09;;;;;;;11.70;4.10;;;;;;;-141.48;100.00;69781.59;4972755;29;20167;-66
2022/07/08 06:59:41;;;;;;;4.85;4.30;;;;;;;-141.48;100.00;69781.59;4972575;29;20404;-62
2022/07/08 07:02:11;;;;;;;8.07;4.57;;;;;;;-141.48;100.00;69781.59;4956000;29;20023;-65
2022/07/08 07:04:44;;;;;;;17.52;5.25;;;;;;;-141.48;100.00;69781.59;4972441;29;20091;-63
2022/07/08 07:07:18;;;;;;;5.22;4.85;;;;;;;-141.48;100.00;69781.59;4956570;29;20038;-63
2022/07/08 07:09:50;;;;;;;5.93;4.93;;;;;;;-141.48;100.00;69781.59;4972458;29;20066;-62
2022/07/08 07:12:26;;;;;;;4.43;4.13;;;;;;;-141.48;100.00;69781.59;4972915;29;20022;-62
2022/07/08 07:14:57;;;;;;;5.22;4.45;;;;;;;-141.48;100.00;69781.59;4972079;29;20047;-63
2022/07/08 07:17:29;;;;;;;8.32;4.35;;;;;;;-141.48;100.00;69781.59;4956159;29;20060;-64
2022/07/08 07:20:03;;;;;;;8.07;4.38;;;;;;;-141.48;100.00;69781.59;4972201;29;20058;-63
2022/07/08 07:22:46;;;;;;;4.80;4.47;;;;;;;-141.48;100.00;69781.59;4972405;29;20094;-64
2022/07/08 07:25:48;;;;;;;6.28;5.55;;;;;;;-141.48;100.00;69781.59;4972020;29;20054;-67
2022/07/08 07:28:45;;;;;;;5.22;4.45;;;;;;;-141.48;100.00;69781.59;4972322;29;20027;-63
2022/07/08 07:31:21;;;;;;;4.47;4.28;;;;;;;-141.48;100.00;69781.59;4971827;29;20496;-64
2022/07/08 07:34:10;;;;;;;5.28;4.88;;;;;;;-141.48;100.00;69781.59;4972036;29;20030;-65
2022/07/08 07:36:45;;;;;;;5.30;3.72;;;;;;;-141.48;100.00;69781.59;4971780;29;20038;-64
2022/07/08 07:39:16;;;;;;;7.50;4.93;;;;;;;-141.48;100.00;69781.59;4972150;29;20435;-64
2022/07/08 07:41:47;;;;;;;5.60;4.78;;;;;;;-141.48;100.00;69781.59;4972051;29;20029;-65
2022/07/08 07:44:17;;;;;;;6.53;4.88;;;;;;;-141.48;100.00;69781.59;4955200;29;20035;-65
2022/07/08 07:46:48;;;;;;;13.55;6.28;;;;;;;-141.48;100.00;69781.59;4971851;29;20149;-68
2022/07/08 07:49:19;;;;;;;5.18;4.28;;;;;;;-141.48;100.00;69781.59;4971438;29;20038;-66
2022/07/08 07:51:49;;;;;;;5.18;4.47;;;;;;;-141.48;100.00;69781.59;4955194;29;20023;-65
2022/07/08 07:54:20;;;;;;;4.55;4.25;;;;;;;-141.48;100.00;69781.59;4970853;29;20485;-64
2022/07/08 07:56:50;;;;;;;4.93;4.50;;;;;;;-141.48;100.00;69781.59;4971711;29;20023;-64
2022/07/08 07:59:21;;;;;;;7.47;4.68;;;;;;;-141.48;100.00;69781.59;4971995;29;20059;-68
2022/07/08 08:01:51;;;;;;;8.70;4.03;;;;;;;-141.48;100.00;69781.59;4971851;29;20033;-66
2022/07/08 08:04:22;;;;;;;4.45;4.20;;;;;;;-141.48;100.00;69781.59;4971647;29;20087;-65
2022/07/08 08:06:52;;;;;;;4.25;3.85;;;;;;;-141.48;100.00;69781.59;4971378;29;20549;-64
2022/07/08 08:09:23;;;;;;;5.97;5.03;;;;;;;-141.48;100.00;69781.59;4971573;29;20039;-67
2022/07/08 08:11:53;;;;;;;5.40;5.00;;;;;;;-141.48;100.00;69781.59;4971437;29;20022;-64
2022/07/08 08:14:23;;;;;;;11.43;6.18;;;;;;;-141.48;100.00;69781.59;4970343;29;20472;-70
2022/07/08 08:16:54;;;;;;;6.10;5.53;;;;;;;-141.48;100.00;69781.59;4971477;29;20027;-68
2022/07/08 08:19:24;;;;;;;3.92;3.47;;;;;;;-141.48;100.00;69781.59;4971360;29;20492;-65
2022/07/08 08:21:55;;;;;;;3.90;3.70;;;;;;;-141.48;100.00;69781.59;4971079;29;20488;-63
2022/07/08 08:24:25;;;;;;;4.47;4.07;;;;;;;-141.48;100.00;69781.59;4971301;29;20026;-64
2022/07/08 08:26:55;;;;;;;4.43;3.83;;;;;;;-141.48;100.00;69781.59;4955057;29;20026;-64
2022/07/08 08:29:26;;;;;;;8.65;4.07;;;;;;;-141.48;100.00;69781.59;4971266;29;20034;-65
2022/07/08 08:31:56;;;;;;;5.65;3.85;;;;;;;-141.48;100.00;69781.59;4970955;29;20034;-69
2022/07/08 08:34:27;;;;;;;5.38;3.92;;;;;;;-141.48;100.00;69781.59;4970610;29;20046;-66
2022/07/08 08:36:57;;;;;;;3.17;2.95;;;;;;;-141.48;100.00;69781.59;4970634;29;20030;-64
2022/07/08 08:39:28;;;;;;;6.28;4.28;;;;;;;-141.48;100.00;69781.59;4970811;29;20035;-65
2022/07/08 08:41:58;;;;;;;7.60;4.30;;;;;;;-141.48;100.00;69781.59;4970747;29;20152;-65
2022/07/08 08:44:29;;;;;;;15.07;6.05;;;;;;;-141.48;100.00;69781.59;4970600;29;20501;-64
2022/07/08 08:47:02;;;;;;;5.28;4.70;;;;;;;-141.48;100.00;69781.59;4970722;29;20027;-65
2022/07/08 08:49:34;;;;;;;4.20;3.83;;;;;;;-141.48;100.00;69781.59;4954492;29;20453;-64
2022/07/08 08:52:07;;;;;;;7.25;5.00;;;;;;;-141.48;100.00;69781.59;4954722;29;20083;-63
2022/07/08 08:54:38;;;;;;;4.15;3.85;;;;;;;-141.48;100.00;69781.59;4970366;29;20038;-69
2022/07/08 08:57:08;;;;;;;8.52;4.45;;;;;;;-141.48;100.00;69781.59;4970525;29;20027;-64
2022/07/08 08:59:39;;;;;;;3.08;2.88;;;;;;;-141.48;100.00;69781.59;4970817;29;20085;-64
2022/07/08 09:02:11;;;;;;;9.77;4.22;;;;;;;-141.48;100.00;69781.59;4970305;29;20038;-64
2022/07/08 09:04:43;;;;;;;11.77;5.03;;;;;;;-141.48;100.00;69781.59;4970154;29;20087;-64
2022/07/08 09:07:15;;;;;;;21.25;5.10;;;;;;;-141.48;100.00;69781.59;4954287;29;20027;-64
2022/07/08 09:09:45;;;;;;;6.65;4.32;;;;;;;-141.48;100.00;69781.59;4970395;29;20034;-65
2022/07/08 09:12:17;;;;;;;5.15;4.20;;;;;;;-141.48;100.00;69781.59;4971075;29;20027;-64
2022/07/08 09:14:51;;;;;;;4.55;3.42;;;;;;;-141.48;100.00;69781.59;4969848;29;20467;-65
2022/07/08 09:17:21;;;;;;;6.10;4.60;;;;;;;-141.48;100.00;69781.59;4970527;29;20058;-65
2022/07/08 09:19:52;;;;;;;8.30;4.13;;;;;;;-141.48;100.00;69781.59;4970230;29;20062;-65
2022/07/08 09:22:23;;;;;;;6.07;3.35;;;;;;;-141.48;100.00;69781.59;4970148;29;20030;-64
2022/07/08 09:24:56;;;;;;;8.98;4.88;;;;;;;-141.48;100.00;69781.59;4969734;29;20409;-66
2022/07/08 09:27:28;;;;;;;7.75;4.55;;;;;;;-141.48;100.00;69781.59;4970300;29;20060;-64
2022/07/08 09:30:00;;;;;;;3.78;3.58;;;;;;;-141.48;100.00;69781.59;4970179;29;20045;-64
2022/07/08 09:32:30;;;;;;;7.53;4.43;;;;;;;-141.48;100.00;69781.59;4969831;29;20488;-65
2022/07/08 09:35:01;;;;;;;11.57;4.88;;;;;;;-141.48;100.00;69781.59;4969825;29;20035;-64
2022/07/08 09:37:31;;;;;;;8.68;4.28;;;;;;;-141.48;100.00;69781.59;4969778;29;20064;-63
2022/07/08 09:40:02;;;;;;;4.38;4.07;;;;;;;-141.48;100.00;69781.59;4953904;29;20034;-64
2022/07/08 09:42:39;;;;;;;3.92;3.72;;;;;;;-141.48;100.00;69781.59;4969885;29;20083;-63
2022/07/08 09:45:09;;;;;;;3.75;3.00;;;;;;;-141.48;100.00;69781.59;4969714;29;20022;-64
2022/07/08 09:47:39;;;;;;;4.85;3.15;;;;;;;-141.48;100.00;69781.59;4969709;29;20545;-63
2022/07/08 09:50:10;;;;;;;6.25;4.55;;;;;;;-141.48;100.00;69781.59;4969801;29;20031;-63
2022/07/08 09:52:40;;;;;;;6.18;4.72;;;;;;;-141.48;100.00;69781.59;4970078;29;20083;-62
2022/07/08 09:55:11;;;;;;;3.70;3.38;;;;;;;-141.48;100.00;69781.59;4969736;29;20035;-61
2022/07/08 09:57:41;;;;;;;7.10;3.78;;;;;;;-141.48;100.00;69781.59;4953756;29;20556;-62
2022/07/08 10:00:12;;;;;;;3.92;3.63;;;;;;;-141.48;100.00;69781.59;4969982;29;20058;-66
2022/07/08 10:02:44;;;;;;;4.90;3.00;;;;;;;-141.48;100.00;69781.59;4969732;29;20073;-63
2022/07/08 10:05:15;;;;;;;3.20;2.90;;;;;;;-141.48;100.00;69781.59;4969527;29;20031;-63
2022/07/08 10:07:45;;;;;;;4.82;3.60;;;;;;;-141.48;100.00;69781.59;4969606;29;20130;-62
2022/07/08 10:10:16;;;;;;;8.38;4.65;;;;;;;-141.48;100.00;69781.59;4969906;29;20105;-71
2022/07/08 10:12:46;;;;;;;7.07;3.25;;;;;;;-141.48;100.00;69781.59;4970441;29;20023;-68
2022/07/08 10:15:18;;;;;;;4.72;4.47;;;;;;;-141.48;100.00;69781.59;4969335;29;20142;-63
2022/07/08 10:17:49;;;;;;;5.78;4.05;;;;;;;-141.48;100.00;69781.59;4970169;29;20319;-68
2022/07/08 10:20:22;;;;;;;4.13;3.17;;;;;;;-141.48;100.00;69781.59;4969576;29;20038;-63
2022/07/08 10:22:59;;;;;;;3.72;3.42;;;;;;;-141.48;100.00;69781.59;4969709;29;20037;-65
2022/07/08 10:25:29;;;;;;;11.35;3.85;;;;;;;-141.48;100.00;69781.59;4969235;29;20514;-66
2022/07/08 10:28:12;;;;;;;4.65;4.35;;;;;;;-141.48;100.00;69781.59;4969757;29;20109;-63
2022/07/08 10:30:52;;;;;;;3.47;3.28;;;;;;;-141.48;100.00;69781.59;4982992;24;20041;-60
2022/07/08 10:33:25;;;;;;;3.88;3.00;;;;;;;-141.48;100.00;69781.59;4949553;30;20501;-62
2022/07/08 10:36:09;;;;;;;11.52;3.10;;;;;;;-141.48;100.00;69781.59;4951006;29;20059;-65
2022/07/08 10:38:41;;;;;;;4.40;3.92;;;;;;;-141.48;100.00;69781.59;4938575;30;20408;-63
2022/07/08 10:41:17;;;;;;;6.40;3.53;;;;;;;-141.48;100.00;69781.59;4938603;30;20093;-62
2022/07/08 10:43:54;;;;;;;3.67;3.35;;;;;;;-141.48;100.00;69781.59;4954591;30;20450;-62
2022/07/08 10:46:25;;;;;;;6.32;3.50;;;;;;;-141.48;100.00;69781.59;4954790;29;20034;-62
2022/07/08 10:48:57;;;;;;;4.00;3.45;;;;;;;-141.48;100.00;69781.59;4954657;30;20031;-63
2022/07/08 10:51:29;;;;;;;5.28;3.33;;;;;;;-141.48;100.00;69781.59;4954416;30;20065;-62
2022/07/08 10:54:01;;;;;;;5.53;3.17;;;;;;;-141.48;100.00;69781.59;4954428;30;20404;-63
2022/07/08 10:56:49;;;;;;;5.13;3.17;;;;;;;-141.48;100.00;69781.59;4954303;29;20466;-64
2022/07/08 10:59:22;;;;;;;5.80;3.80;;;;;;;-141.48;100.00;69781.59;4954221;30;20039;-63
2022/07/08 11:01:58;;;;;;;5.65;4.70;;;;;;;-141.48;100.00;69781.59;4954122;30;20043;-62
2022/07/08 11:04:34;;;;;;;3.42;3.13;;;;;;;-141.48;100.00;69781.59;4954139;30;20097;-62
2022/07/08 11:07:26;;;;;;;4.05;3.53;;;;;;;-141.48;100.00;69781.59;4954266;29;20508;-62
2022/07/08 11:10:13;;;;;;;4.90;3.15;;;;;;;-141.48;100.00;69781.59;4954234;30;20039;-62
2022/07/08 11:12:45;;;;;;;3.80;3.65;;;;;;;-141.48;100.00;69781.59;4954533;30;20450;-64
2022/07/08 11:15:17;;;;;;;5.32;4.65;;;;;;;-141.48;100.00;69781.59;4954104;30;20209;-64
2022/07/08 11:17:48;;;;;;;4.10;3.40;;;;;;;-141.48;100.00;69781.59;4954238;29;20095;-63
2022/07/08 11:20:19;;;;;;;5.72;3.60;;;;;;;-141.48;100.00;69781.59;4954170;30;20039;-64
2022/07/08 11:22:50;;;;;;;6.80;3.95;;;;;;;-141.48;100.00;69781.59;4954654;30;20422;-63
2022/07/08 11:25:22;;;;;;;3.88;3.63;;;;;;;-141.48;100.00;69781.59;4938128;30;20081;-64
2022/07/08 11:27:52;;;;;;;3.47;3.28;;;;;;;-141.48;100.00;69781.59;4954837;30;20474;-66
2022/07/08 11:30:23;;;;;;;5.80;3.65;;;;;;;-141.48;100.00;69781.59;4940028;30;20031;-70
2022/07/08 11:32:55;;;;;;;4.95;2.60;;;;;;;-141.48;100.00;69781.59;4955210;29;20532;-64
2022/07/08 11:35:26;;;;;;;5.22;4.43;;;;;;;-141.48;100.00;69781.59;4938183;29;20035;-63